sensor_id;sensor_type;location;lat;lon;timestamp;P1;durP1;ratioP1;P2;durP2;ratioP2
66585;SDS011;53444;45.822;16.092;2023-02-18T00:01:29;38.17;;;16.33;;
66585;SDS011;53444;45.822;16.092;2023-02-18T00:03:56;41.97;;;18.40;;
66585;SDS011;53444;45.822;16.092;2023-02-18T00:06:24;50.85;;;19.95;;
66585;SDS011;53444;45.822;16.092;2023-02-18T00:08:53;34.90;;;14.50;;
66585;SDS011;53444;45.822;16.092;2023-02-18T00:11:21;51.53;;;22.35;;
66585;SDS011;53444;45.822;16.092;2023-02-18T00:13:48;47.40;;;19.17;;
66585;SDS011;53444;45.822;16.092;2023-02-18T00:16:16;42.08;;;17.30;;
66585;SDS011;53444;45.822;16.092;2023-02-18T00:18:43;55.50;;;20.13;;
66585;SDS011;53444;45.822;16.092;2023-02-18T00:21:09;45.87;;;16.87;;
66585;SDS011;53444;45.822;16.092;2023-02-18T00:23:36;44.25;;;16.15;;
66585;SDS011;53444;45.822;16.092;2023-02-18T00:26:09;45.55;;;20.30;;
66585;SDS011;53444;45.822;16.092;2023-02-18T00:28:36;47.15;;;19.42;;
66585;SDS011;53444;45.822;16.092;2023-02-18T00:31:06;53.47;;;22.23;;
66585;SDS011;53444;45.822;16.092;2023-02-18T00:33:34;42.70;;;18.77;;
66585;SDS011;53444;45.822;16.092;2023-02-18T00:36:01;47.60;;;20.13;;
66585;SDS011;53444;45.822;16.092;2023-02-18T00:38:29;47.08;;;19.60;;
66585;SDS011;53444;45.822;16.092;2023-02-18T00:40:56;45.47;;;20.90;;
66585;SDS011;53444;45.822;16.092;2023-02-18T00:43:25;44.25;;;17.20;;
66585;SDS011;53444;45.822;16.092;2023-02-18T00:45:52;49.63;;;21.63;;
66585;SDS011;53444;45.822;16.092;2023-02-18T00:48:19;47.00;;;20.08;;
66585;SDS011;53444;45.822;16.092;2023-02-18T00:50:46;55.92;;;21.92;;
66585;SDS011;53444;45.822;16.092;2023-02-18T00:53:13;55.45;;;23.98;;
66585;SDS011;53444;45.822;16.092;2023-02-18T00:55:39;45.22;;;20.02;;
66585;SDS011;53444;45.822;16.092;2023-02-18T00:58:06;37.30;;;17.03;;
66585;SDS011;53444;45.822;16.092;2023-02-18T01:00:34;50.45;;;20.27;;
66585;SDS011;53444;45.822;16.092;2023-02-18T01:03:01;46.85;;;19.15;;
66585;SDS011;53444;45.822;16.092;2023-02-18T01:05:28;53.45;;;20.02;;
66585;SDS011;53444;45.822;16.092;2023-02-18T01:07:54;47.00;;;18.92;;
66585;SDS011;53444;45.822;16.092;2023-02-18T01:10:21;43.80;;;17.27;;
66585;SDS011;53444;45.822;16.092;2023-02-18T01:12:48;51.10;;;19.30;;
66585;SDS011;53444;45.822;16.092;2023-02-18T01:15:15;43.45;;;17.98;;
66585;SDS011;53444;45.822;16.092;2023-02-18T01:17:43;42.63;;;17.90;;
66585;SDS011;53444;45.822;16.092;2023-02-18T01:20:11;43.13;;;18.92;;
66585;SDS011;53444;45.822;16.092;2023-02-18T01:22:38;61.80;;;23.30;;
66585;SDS011;53444;45.822;16.092;2023-02-18T01:25:05;41.53;;;18.02;;
66585;SDS011;53444;45.822;16.092;2023-02-18T01:27:32;58.00;;;23.08;;
66585;SDS011;53444;45.822;16.092;2023-02-18T01:29:59;58.92;;;22.77;;
66585;SDS011;53444;45.822;16.092;2023-02-18T01:32:25;54.72;;;22.15;;
66585;SDS011;53444;45.822;16.092;2023-02-18T01:34:54;52.55;;;21.40;;
66585;SDS011;53444;45.822;16.092;2023-02-18T01:37:20;52.60;;;22.58;;
66585;SDS011;53444;45.822;16.092;2023-02-18T01:39:47;50.75;;;18.38;;
66585;SDS011;53444;45.822;16.092;2023-02-18T01:42:17;44.63;;;19.92;;
66585;SDS011;53444;45.822;16.092;2023-02-18T01:44:45;51.42;;;20.17;;
66585;SDS011;53444;45.822;16.092;2023-02-18T01:47:12;53.20;;;21.93;;
66585;SDS011;53444;45.822;16.092;2023-02-18T01:49:39;45.53;;;18.35;;
66585;SDS011;53444;45.822;16.092;2023-02-18T01:52:11;56.95;;;21.05;;
66585;SDS011;53444;45.822;16.092;2023-02-18T01:54:43;49.22;;;19.25;;
66585;SDS011;53444;45.822;16.092;2023-02-18T01:57:13;35.53;;;16.30;;
66585;SDS011;53444;45.822;16.092;2023-02-18T01:59:43;49.92;;;19.52;;
66585;SDS011;53444;45.822;16.092;2023-02-18T02:02:18;53.97;;;22.27;;
66585;SDS011;53444;45.822;16.092;2023-02-18T02:04:47;48.13;;;20.05;;
66585;SDS011;53444;45.822;16.092;2023-02-18T02:07:15;51.70;;;20.02;;
66585;SDS011;53444;45.822;16.092;2023-02-18T02:09:44;51.13;;;20.42;;
66585;SDS011;53444;45.822;16.092;2023-02-18T02:12:16;59.13;;;26.80;;
66585;SDS011;53444;45.822;16.092;2023-02-18T02:15:17;46.60;;;19.02;;
66585;SDS011;53444;45.822;16.092;2023-02-18T02:17:56;52.83;;;21.65;;
66585;SDS011;53444;45.822;16.092;2023-02-18T02:26:57;49.00;;;20.48;;
66585;SDS011;53444;45.822;16.092;2023-02-18T02:29:45;42.67;;;18.05;;
66585;SDS011;53444;45.822;16.092;2023-02-18T02:35:53;46.78;;;19.33;;
66585;SDS011;53444;45.822;16.092;2023-02-18T02:38:26;46.35;;;19.63;;
66585;SDS011;53444;45.822;16.092;2023-02-18T02:40:58;42.47;;;17.90;;
66585;SDS011;53444;45.822;16.092;2023-02-18T02:43:30;42.33;;;18.70;;
66585;SDS011;53444;45.822;16.092;2023-02-18T02:46:08;41.45;;;17.55;;
66585;SDS011;53444;45.822;16.092;2023-02-18T02:48:44;51.88;;;20.73;;
66585;SDS011;53444;45.822;16.092;2023-02-18T02:51:17;45.85;;;18.20;;
66585;SDS011;53444;45.822;16.092;2023-02-18T02:53:48;43.67;;;17.73;;
66585;SDS011;53444;45.822;16.092;2023-02-18T02:56:15;56.40;;;24.23;;
66585;SDS011;53444;45.822;16.092;2023-02-18T02:58:44;49.95;;;20.48;;
66585;SDS011;53444;45.822;16.092;2023-02-18T03:01:25;53.92;;;23.20;;
66585;SDS011;53444;45.822;16.092;2023-02-18T03:04:08;46.42;;;19.05;;
66585;SDS011;53444;45.822;16.092;2023-02-18T03:06:56;46.67;;;19.58;;
66585;SDS011;53444;45.822;16.092;2023-02-18T03:09:33;48.97;;;19.63;;
66585;SDS011;53444;45.822;16.092;2023-02-18T03:12:14;45.70;;;17.73;;
66585;SDS011;53444;45.822;16.092;2023-02-18T03:14:46;42.53;;;16.60;;
66585;SDS011;53444;45.822;16.092;2023-02-18T03:17:22;53.10;;;21.65;;
66585;SDS011;53444;45.822;16.092;2023-02-18T03:19:54;55.22;;;21.70;;
66585;SDS011;53444;45.822;16.092;2023-02-18T03:22:28;48.72;;;20.80;;
66585;SDS011;53444;45.822;16.092;2023-02-18T03:24:57;48.38;;;20.17;;
66585;SDS011;53444;45.822;16.092;2023-02-18T03:27:26;45.65;;;20.58;;
66585;SDS011;53444;45.822;16.092;2023-02-18T03:29:56;44.40;;;19.70;;
66585;SDS011;53444;45.822;16.092;2023-02-18T03:32:29;51.47;;;22.87;;
66585;SDS011;53444;45.822;16.092;2023-02-18T03:34:59;51.85;;;20.90;;
66585;SDS011;53444;45.822;16.092;2023-02-18T03:37:29;55.45;;;23.48;;
66585;SDS011;53444;45.822;16.092;2023-02-18T03:39:58;57.17;;;22.02;;
66585;SDS011;53444;45.822;16.092;2023-02-18T03:42:27;36.28;;;16.58;;
66585;SDS011;53444;45.822;16.092;2023-02-18T03:44:54;50.67;;;21.77;;
66585;SDS011;53444;45.822;16.092;2023-02-18T03:47:21;55.75;;;21.80;;
66585;SDS011;53444;45.822;16.092;2023-02-18T03:49:48;58.47;;;23.83;;
66585;SDS011;53444;45.822;16.092;2023-02-18T03:52:15;53.13;;;20.30;;
66585;SDS011;53444;45.822;16.092;2023-02-18T03:54:43;59.15;;;24.13;;
66585;SDS011;53444;45.822;16.092;2023-02-18T03:57:09;62.40;;;23.90;;
66585;SDS011;53444;45.822;16.092;2023-02-18T03:59:36;61.83;;;24.00;;
66585;SDS011;53444;45.822;16.092;2023-02-18T04:02:02;51.15;;;20.38;;
66585;SDS011;53444;45.822;16.092;2023-02-18T04:04:29;60.17;;;21.75;;
66585;SDS011;53444;45.822;16.092;2023-02-18T04:06:55;54.25;;;22.75;;
66585;SDS011;53444;45.822;16.092;2023-02-18T04:09:22;47.78;;;20.05;;
66585;SDS011;53444;45.822;16.092;2023-02-18T04:11:52;56.25;;;21.52;;
66585;SDS011;53444;45.822;16.092;2023-02-18T04:14:19;64.90;;;23.25;;
66585;SDS011;53444;45.822;16.092;2023-02-18T04:16:46;53.15;;;20.40;;
66585;SDS011;53444;45.822;16.092;2023-02-18T04:19:12;47.33;;;19.67;;
66585;SDS011;53444;45.822;16.092;2023-02-18T04:21:39;37.40;;;15.03;;
66585;SDS011;53444;45.822;16.092;2023-02-18T04:24:05;51.90;;;20.67;;
66585;SDS011;53444;45.822;16.092;2023-02-18T04:26:32;57.92;;;24.00;;
66585;SDS011;53444;45.822;16.092;2023-02-18T04:29:00;51.40;;;21.40;;
66585;SDS011;53444;45.822;16.092;2023-02-18T04:31:26;53.72;;;21.80;;
66585;SDS011;53444;45.822;16.092;2023-02-18T04:33:53;51.60;;;21.03;;
66585;SDS011;53444;45.822;16.092;2023-02-18T04:36:19;43.60;;;18.77;;
66585;SDS011;53444;45.822;16.092;2023-02-18T04:38:49;39.80;;;14.70;;
66585;SDS011;53444;45.822;16.092;2023-02-18T04:41:15;48.97;;;20.10;;
66585;SDS011;53444;45.822;16.092;2023-02-18T04:43:42;53.42;;;19.92;;
66585;SDS011;53444;45.822;16.092;2023-02-18T04:46:10;51.67;;;21.63;;
66585;SDS011;53444;45.822;16.092;2023-02-18T04:48:36;53.70;;;20.15;;
66585;SDS011;53444;45.822;16.092;2023-02-18T04:51:03;50.45;;;19.05;;
66585;SDS011;53444;45.822;16.092;2023-02-18T04:53:30;50.80;;;20.17;;
66585;SDS011;53444;45.822;16.092;2023-02-18T04:55:57;57.72;;;21.05;;
66585;SDS011;53444;45.822;16.092;2023-02-18T04:58:23;46.33;;;18.37;;
66585;SDS011;53444;45.822;16.092;2023-02-18T05:00:50;55.67;;;20.75;;
66585;SDS011;53444;45.822;16.092;2023-02-18T05:03:19;43.13;;;19.27;;
66585;SDS011;53444;45.822;16.092;2023-02-18T05:05:45;52.60;;;22.05;;
66585;SDS011;53444;45.822;16.092;2023-02-18T05:08:12;60.72;;;22.05;;
66585;SDS011;53444;45.822;16.092;2023-02-18T05:10:40;52.00;;;22.63;;
66585;SDS011;53444;45.822;16.092;2023-02-18T05:13:06;48.88;;;19.95;;
66585;SDS011;53444;45.822;16.092;2023-02-18T05:15:33;59.85;;;23.33;;
66585;SDS011;53444;45.822;16.092;2023-02-18T05:17:59;57.92;;;23.50;;
66585;SDS011;53444;45.822;16.092;2023-02-18T05:20:27;61.13;;;22.73;;
66585;SDS011;53444;45.822;16.092;2023-02-18T05:22:54;63.77;;;23.83;;
66585;SDS011;53444;45.822;16.092;2023-02-18T05:25:21;53.08;;;21.10;;
66585;SDS011;53444;45.822;16.092;2023-02-18T05:27:47;60.65;;;22.95;;
66585;SDS011;53444;45.822;16.092;2023-02-18T05:30:14;57.30;;;24.25;;
66585;SDS011;53444;45.822;16.092;2023-02-18T05:32:41;54.45;;;24.15;;
66585;SDS011;53444;45.822;16.092;2023-02-18T05:35:07;53.70;;;22.85;;
66585;SDS011;53444;45.822;16.092;2023-02-18T05:37:35;53.05;;;20.55;;
66585;SDS011;53444;45.822;16.092;2023-02-18T05:40:02;50.40;;;20.65;;
66585;SDS011;53444;45.822;16.092;2023-02-18T05:42:29;59.33;;;22.77;;
66585;SDS011;53444;45.822;16.092;2023-02-18T05:44:56;54.53;;;20.92;;
66585;SDS011;53444;45.822;16.092;2023-02-18T05:47:23;55.47;;;22.77;;
66585;SDS011;53444;45.822;16.092;2023-02-18T05:49:50;49.60;;;20.35;;
66585;SDS011;53444;45.822;16.092;2023-02-18T05:52:17;63.00;;;25.05;;
66585;SDS011;53444;45.822;16.092;2023-02-18T05:54:45;57.20;;;22.17;;
66585;SDS011;53444;45.822;16.092;2023-02-18T05:57:12;52.70;;;20.75;;
66585;SDS011;53444;45.822;16.092;2023-02-18T05:59:39;55.90;;;21.23;;
66585;SDS011;53444;45.822;16.092;2023-02-18T06:02:05;49.72;;;20.65;;
66585;SDS011;53444;45.822;16.092;2023-02-18T06:04:32;42.10;;;17.05;;
66585;SDS011;53444;45.822;16.092;2023-02-18T06:06:59;51.67;;;19.00;;
66585;SDS011;53444;45.822;16.092;2023-02-18T06:09:26;51.97;;;18.67;;
66585;SDS011;53444;45.822;16.092;2023-02-18T06:11:54;48.63;;;19.63;;
66585;SDS011;53444;45.822;16.092;2023-02-18T06:14:20;55.13;;;20.80;;
66585;SDS011;53444;45.822;16.092;2023-02-18T06:16:47;59.53;;;23.02;;
66585;SDS011;53444;45.822;16.092;2023-02-18T06:19:13;50.58;;;20.15;;
66585;SDS011;53444;45.822;16.092;2023-02-18T06:21:40;59.72;;;24.10;;
66585;SDS011;53444;45.822;16.092;2023-02-18T06:24:09;54.47;;;21.97;;
66585;SDS011;53444;45.822;16.092;2023-02-18T06:26:36;46.08;;;19.70;;
66585;SDS011;53444;45.822;16.092;2023-02-18T06:29:04;48.85;;;20.80;;
66585;SDS011;53444;45.822;16.092;2023-02-18T06:31:30;55.70;;;23.88;;
66585;SDS011;53444;45.822;16.092;2023-02-18T06:33:57;47.33;;;21.15;;
66585;SDS011;53444;45.822;16.092;2023-02-18T06:36:23;68.00;;;27.43;;
66585;SDS011;53444;45.822;16.092;2023-02-18T06:38:50;49.95;;;19.63;;
66585;SDS011;53444;45.822;16.092;2023-02-18T06:41:18;59.60;;;24.35;;
66585;SDS011;53444;45.822;16.092;2023-02-18T06:43:45;56.58;;;22.52;;
66585;SDS011;53444;45.822;16.092;2023-02-18T06:46:13;60.47;;;25.85;;
66585;SDS011;53444;45.822;16.092;2023-02-18T06:48:39;51.67;;;21.70;;
66585;SDS011;53444;45.822;16.092;2023-02-18T06:51:06;65.07;;;23.90;;
66585;SDS011;53444;45.822;16.092;2023-02-18T06:53:33;57.33;;;22.42;;
66585;SDS011;53444;45.822;16.092;2023-02-18T06:56:00;61.85;;;23.05;;
66585;SDS011;53444;45.822;16.092;2023-02-18T06:58:29;51.03;;;21.02;;
66585;SDS011;53444;45.822;16.092;2023-02-18T07:00:55;39.13;;;18.57;;
66585;SDS011;53444;45.822;16.092;2023-02-18T07:03:23;62.70;;;26.00;;
66585;SDS011;53444;45.822;16.092;2023-02-18T07:05:50;52.75;;;20.00;;
66585;SDS011;53444;45.822;16.092;2023-02-18T07:08:17;53.30;;;22.60;;
66585;SDS011;53444;45.822;16.092;2023-02-18T07:10:43;52.35;;;21.02;;
66585;SDS011;53444;45.822;16.092;2023-02-18T07:13:11;65.77;;;29.40;;
66585;SDS011;53444;45.822;16.092;2023-02-18T07:15:37;61.35;;;23.98;;
66585;SDS011;53444;45.822;16.092;2023-02-18T07:18:04;51.40;;;20.77;;
66585;SDS011;53444;45.822;16.092;2023-02-18T07:20:32;59.05;;;23.85;;
66585;SDS011;53444;45.822;16.092;2023-02-18T07:22:59;62.15;;;27.17;;
66585;SDS011;53444;45.822;16.092;2023-02-18T07:25:26;58.13;;;22.17;;
66585;SDS011;53444;45.822;16.092;2023-02-18T07:27:55;41.97;;;18.30;;
66585;SDS011;53444;45.822;16.092;2023-02-18T07:30:22;49.88;;;22.80;;
66585;SDS011;53444;45.822;16.092;2023-02-18T07:32:48;49.85;;;20.55;;
66585;SDS011;53444;45.822;16.092;2023-02-18T07:35:15;45.03;;;19.48;;
66585;SDS011;53444;45.822;16.092;2023-02-18T07:37:45;61.40;;;26.47;;
66585;SDS011;53444;45.822;16.092;2023-02-18T07:40:12;67.70;;;25.85;;
66585;SDS011;53444;45.822;16.092;2023-02-18T07:42:40;63.28;;;25.20;;
66585;SDS011;53444;45.822;16.092;2023-02-18T07:45:07;54.47;;;22.77;;
66585;SDS011;53444;45.822;16.092;2023-02-18T07:47:35;61.05;;;26.65;;
66585;SDS011;53444;45.822;16.092;2023-02-18T07:50:02;52.17;;;23.73;;
66585;SDS011;53444;45.822;16.092;2023-02-18T07:52:29;58.72;;;22.05;;
66585;SDS011;53444;45.822;16.092;2023-02-18T07:54:57;49.15;;;21.48;;
66585;SDS011;53444;45.822;16.092;2023-02-18T07:57:24;57.08;;;26.15;;
66585;SDS011;53444;45.822;16.092;2023-02-18T07:59:51;51.75;;;22.65;;
66585;SDS011;53444;45.822;16.092;2023-02-18T08:02:18;58.07;;;26.00;;
66585;SDS011;53444;45.822;16.092;2023-02-18T08:04:47;59.75;;;23.63;;
66585;SDS011;53444;45.822;16.092;2023-02-18T08:07:14;54.55;;;23.42;;
66585;SDS011;53444;45.822;16.092;2023-02-18T08:09:42;54.50;;;22.25;;
66585;SDS011;53444;45.822;16.092;2023-02-18T08:12:11;54.08;;;19.52;;
66585;SDS011;53444;45.822;16.092;2023-02-18T08:14:38;53.83;;;24.05;;
66585;SDS011;53444;45.822;16.092;2023-02-18T08:17:05;65.38;;;26.55;;
66585;SDS011;53444;45.822;16.092;2023-02-18T08:19:32;50.08;;;19.77;;
66585;SDS011;53444;45.822;16.092;2023-02-18T08:22:00;56.13;;;22.45;;
66585;SDS011;53444;45.822;16.092;2023-02-18T08:24:29;55.83;;;22.33;;
66585;SDS011;53444;45.822;16.092;2023-02-18T08:26:56;67.40;;;27.13;;
66585;SDS011;53444;45.822;16.092;2023-02-18T08:29:24;52.72;;;21.65;;
66585;SDS011;53444;45.822;16.092;2023-02-18T08:31:52;63.28;;;25.77;;
66585;SDS011;53444;45.822;16.092;2023-02-18T08:34:21;62.50;;;25.40;;
66585;SDS011;53444;45.822;16.092;2023-02-18T08:36:48;61.47;;;24.90;;
66585;SDS011;53444;45.822;16.092;2023-02-18T08:39:15;64.82;;;26.95;;
66585;SDS011;53444;45.822;16.092;2023-02-18T08:41:42;61.03;;;24.45;;
66585;SDS011;53444;45.822;16.092;2023-02-18T08:44:09;62.60;;;23.67;;
66585;SDS011;53444;45.822;16.092;2023-02-18T08:46:37;44.25;;;20.58;;
66585;SDS011;53444;45.822;16.092;2023-02-18T08:49:07;54.55;;;23.63;;
66585;SDS011;53444;45.822;16.092;2023-02-18T08:51:34;51.65;;;21.35;;
66585;SDS011;53444;45.822;16.092;2023-02-18T08:54:00;47.60;;;20.90;;
66585;SDS011;53444;45.822;16.092;2023-02-18T08:56:27;56.55;;;23.45;;
66585;SDS011;53444;45.822;16.092;2023-02-18T08:58:55;58.15;;;23.75;;
66585;SDS011;53444;45.822;16.092;2023-02-18T09:01:22;53.78;;;22.48;;
66585;SDS011;53444;45.822;16.092;2023-02-18T09:03:50;45.30;;;19.60;;
66585;SDS011;53444;45.822;16.092;2023-02-18T09:06:16;48.28;;;20.85;;
66585;SDS011;53444;45.822;16.092;2023-02-18T09:08:43;50.83;;;21.33;;
66585;SDS011;53444;45.822;16.092;2023-02-18T09:11:12;52.00;;;20.67;;
66585;SDS011;53444;45.822;16.092;2023-02-18T09:13:38;54.00;;;22.30;;
66585;SDS011;53444;45.822;16.092;2023-02-18T09:16:06;40.58;;;18.55;;
66585;SDS011;53444;45.822;16.092;2023-02-18T09:18:36;55.58;;;24.40;;
66585;SDS011;53444;45.822;16.092;2023-02-18T09:21:05;47.05;;;20.33;;
66585;SDS011;53444;45.822;16.092;2023-02-18T09:23:33;48.30;;;19.73;;
66585;SDS011;53444;45.822;16.092;2023-02-18T09:26:03;47.83;;;20.42;;
66585;SDS011;53444;45.822;16.092;2023-02-18T09:28:31;47.63;;;19.92;;
66585;SDS011;53444;45.822;16.092;2023-02-18T09:31:02;39.00;;;17.83;;
66585;SDS011;53444;45.822;16.092;2023-02-18T09:33:29;48.90;;;19.42;;
66585;SDS011;53444;45.822;16.092;2023-02-18T09:35:56;47.75;;;21.35;;
66585;SDS011;53444;45.822;16.092;2023-02-18T09:38:24;46.28;;;20.38;;
66585;SDS011;53444;45.822;16.092;2023-02-18T09:40:51;49.30;;;20.30;;
66585;SDS011;53444;45.822;16.092;2023-02-18T09:43:22;38.13;;;18.92;;
66585;SDS011;53444;45.822;16.092;2023-02-18T09:45:53;46.60;;;19.95;;
66585;SDS011;53444;45.822;16.092;2023-02-18T09:48:21;44.00;;;20.13;;
66585;SDS011;53444;45.822;16.092;2023-02-18T09:50:52;38.13;;;16.83;;
66585;SDS011;53444;45.822;16.092;2023-02-18T09:53:20;36.67;;;17.52;;
66585;SDS011;53444;45.822;16.092;2023-02-18T09:55:48;41.08;;;17.90;;
66585;SDS011;53444;45.822;16.092;2023-02-18T09:58:18;39.83;;;17.35;;
66585;SDS011;53444;45.822;16.092;2023-02-18T10:00:48;48.85;;;21.23;;
66585;SDS011;53444;45.822;16.092;2023-02-18T10:03:17;42.40;;;17.73;;
66585;SDS011;53444;45.822;16.092;2023-02-18T10:05:49;41.60;;;18.15;;
66585;SDS011;53444;45.822;16.092;2023-02-18T10:08:22;47.20;;;19.42;;
66585;SDS011;53444;45.822;16.092;2023-02-18T10:10:52;30.20;;;13.75;;
66585;SDS011;53444;45.822;16.092;2023-02-18T10:13:19;41.97;;;18.52;;
66585;SDS011;53444;45.822;16.092;2023-02-18T10:15:47;38.28;;;17.23;;
66585;SDS011;53444;45.822;16.092;2023-02-18T10:18:18;42.50;;;17.83;;
66585;SDS011;53444;45.822;16.092;2023-02-18T10:20:50;40.17;;;18.58;;
66585;SDS011;53444;45.822;16.092;2023-02-18T10:23:18;42.03;;;17.80;;
66585;SDS011;53444;45.822;16.092;2023-02-18T10:25:46;39.60;;;17.60;;
66585;SDS011;53444;45.822;16.092;2023-02-18T10:28:15;41.28;;;19.88;;
66585;SDS011;53444;45.822;16.092;2023-02-18T10:30:49;39.88;;;16.83;;
66585;SDS011;53444;45.822;16.092;2023-02-18T10:33:25;41.65;;;18.00;;
66585;SDS011;53444;45.822;16.092;2023-02-18T10:36:00;39.17;;;18.15;;
66585;SDS011;53444;45.822;16.092;2023-02-18T10:38:36;39.33;;;16.58;;
66585;SDS011;53444;45.822;16.092;2023-02-18T10:41:10;36.08;;;15.57;;
66585;SDS011;53444;45.822;16.092;2023-02-18T10:43:48;38.15;;;16.92;;
66585;SDS011;53444;45.822;16.092;2023-02-18T10:46:20;42.97;;;18.75;;
66585;SDS011;53444;45.822;16.092;2023-02-18T10:48:55;43.15;;;18.35;;
66585;SDS011;53444;45.822;16.092;2023-02-18T10:51:34;37.80;;;16.90;;
66585;SDS011;53444;45.822;16.092;2023-02-18T10:54:05;39.17;;;18.75;;
66585;SDS011;53444;45.822;16.092;2023-02-18T10:56:34;40.30;;;16.27;;
66585;SDS011;53444;45.822;16.092;2023-02-18T10:59:11;39.03;;;17.10;;
66585;SDS011;53444;45.822;16.092;2023-02-18T11:01:52;35.63;;;15.95;;
66585;SDS011;53444;45.822;16.092;2023-02-18T11:04:22;31.73;;;13.73;;
66585;SDS011;53444;45.822;16.092;2023-02-18T11:06:53;34.00;;;16.08;;
66585;SDS011;53444;45.822;16.092;2023-02-18T11:09:24;41.25;;;18.42;;
66585;SDS011;53444;45.822;16.092;2023-02-18T11:12:02;39.55;;;16.65;;
66585;SDS011;53444;45.822;16.092;2023-02-18T11:14:40;38.75;;;17.67;;
66585;SDS011;53444;45.822;16.092;2023-02-18T11:17:12;37.72;;;16.63;;
66585;SDS011;53444;45.822;16.092;2023-02-18T11:19:42;40.78;;;18.50;;
66585;SDS011;53444;45.822;16.092;2023-02-18T11:22:17;37.50;;;17.08;;
66585;SDS011;53444;45.822;16.092;2023-02-18T11:24:49;34.85;;;16.65;;
66585;SDS011;53444;45.822;16.092;2023-02-18T11:27:21;38.53;;;15.15;;
66585;SDS011;53444;45.822;16.092;2023-02-18T11:29:53;32.78;;;14.15;;
66585;SDS011;53444;45.822;16.092;2023-02-18T11:32:26;32.50;;;16.10;;
66585;SDS011;53444;45.822;16.092;2023-02-18T11:34:55;39.97;;;17.25;;
66585;SDS011;53444;45.822;16.092;2023-02-18T11:37:22;34.63;;;17.13;;
66585;SDS011;53444;45.822;16.092;2023-02-18T11:39:53;30.80;;;15.05;;
66585;SDS011;53444;45.822;16.092;2023-02-18T11:42:22;36.05;;;15.93;;
66585;SDS011;53444;45.822;16.092;2023-02-18T11:44:54;31.92;;;14.70;;
66585;SDS011;53444;45.822;16.092;2023-02-18T11:47:24;30.13;;;14.45;;
66585;SDS011;53444;45.822;16.092;2023-02-18T11:50:13;32.50;;;14.07;;
66585;SDS011;53444;45.822;16.092;2023-02-18T11:52:42;29.80;;;14.60;;
66585;SDS011;53444;45.822;16.092;2023-02-18T11:55:13;38.70;;;15.88;;
66585;SDS011;53444;45.822;16.092;2023-02-18T11:57:42;32.75;;;15.98;;
66585;SDS011;53444;45.822;16.092;2023-02-18T12:00:16;32.70;;;14.35;;
66585;SDS011;53444;45.822;16.092;2023-02-18T12:02:47;31.52;;;15.73;;
66585;SDS011;53444;45.822;16.092;2023-02-18T12:05:15;41.03;;;14.32;;
66585;SDS011;53444;45.822;16.092;2023-02-18T12:07:46;39.22;;;16.17;;
66585;SDS011;53444;45.822;16.092;2023-02-18T12:10:18;34.45;;;14.07;;
66585;SDS011;53444;45.822;16.092;2023-02-18T12:12:49;32.65;;;14.40;;
66585;SDS011;53444;45.822;16.092;2023-02-18T12:15:23;27.92;;;13.50;;
66585;SDS011;53444;45.822;16.092;2023-02-18T12:18:04;29.63;;;13.27;;
66585;SDS011;53444;45.822;16.092;2023-02-18T12:20:50;37.53;;;17.48;;
66585;SDS011;53444;45.822;16.092;2023-02-18T12:23:28;36.47;;;15.45;;
66585;SDS011;53444;45.822;16.092;2023-02-18T12:26:04;35.40;;;16.23;;
66585;SDS011;53444;45.822;16.092;2023-02-18T12:28:43;33.90;;;13.93;;
66585;SDS011;53444;45.822;16.092;2023-02-18T12:31:25;37.45;;;16.75;;
66585;SDS011;53444;45.822;16.092;2023-02-18T12:34:04;27.38;;;13.50;;
66585;SDS011;53444;45.822;16.092;2023-02-18T12:36:47;34.75;;;15.77;;
66585;SDS011;53444;45.822;16.092;2023-02-18T12:39:26;39.38;;;16.98;;
66585;SDS011;53444;45.822;16.092;2023-02-18T12:42:10;38.40;;;17.52;;
66585;SDS011;53444;45.822;16.092;2023-02-18T12:44:55;39.50;;;17.45;;
66585;SDS011;53444;45.822;16.092;2023-02-18T12:47:35;36.42;;;15.65;;
66585;SDS011;53444;45.822;16.092;2023-02-18T12:53:15;38.47;;;17.95;;
66585;SDS011;53444;45.822;16.092;2023-02-18T12:56:14;40.25;;;17.70;;
66585;SDS011;53444;45.822;16.092;2023-02-18T12:58:55;38.38;;;16.80;;
66585;SDS011;53444;45.822;16.092;2023-02-18T13:01:35;38.72;;;18.48;;
66585;SDS011;53444;45.822;16.092;2023-02-18T13:04:24;41.05;;;17.63;;
66585;SDS011;53444;45.822;16.092;2023-02-18T13:10:08;36.88;;;16.95;;
66585;SDS011;53444;45.822;16.092;2023-02-18T13:12:47;37.38;;;17.83;;
66585;SDS011;53444;45.822;16.092;2023-02-18T13:15:20;51.30;;;23.85;;
66585;SDS011;53444;45.822;16.092;2023-02-18T13:17:50;38.10;;;18.17;;
66585;SDS011;53444;45.822;16.092;2023-02-18T13:20:24;36.28;;;16.92;;
66585;SDS011;53444;45.822;16.092;2023-02-18T13:22:58;41.67;;;19.60;;
66585;SDS011;53444;45.822;16.092;2023-02-18T13:25:25;41.10;;;18.58;;
66585;SDS011;53444;45.822;16.092;2023-02-18T13:27:55;34.13;;;15.30;;
66585;SDS011;53444;45.822;16.092;2023-02-18T13:30:33;35.00;;;15.45;;
66585;SDS011;53444;45.822;16.092;2023-02-18T13:33:07;34.15;;;14.85;;
66585;SDS011;53444;45.822;16.092;2023-02-18T13:35:41;31.08;;;14.98;;
66585;SDS011;53444;45.822;16.092;2023-02-18T13:38:24;36.58;;;16.95;;
66585;SDS011;53444;45.822;16.092;2023-02-18T13:41:15;30.65;;;14.85;;
66585;SDS011;53444;45.822;16.092;2023-02-18T13:43:42;37.42;;;16.95;;
66585;SDS011;53444;45.822;16.092;2023-02-18T13:46:09;30.42;;;14.38;;
66585;SDS011;53444;45.822;16.092;2023-02-18T13:48:45;30.13;;;14.13;;
66585;SDS011;53444;45.822;16.092;2023-02-18T13:51:16;32.42;;;14.35;;
66585;SDS011;53444;45.822;16.092;2023-02-18T13:53:53;28.90;;;14.85;;
66585;SDS011;53444;45.822;16.092;2023-02-18T13:56:26;33.08;;;15.27;;
66585;SDS011;53444;45.822;16.092;2023-02-18T13:58:58;33.70;;;15.30;;
66585;SDS011;53444;45.822;16.092;2023-02-18T14:01:36;31.58;;;15.13;;
66585;SDS011;53444;45.822;16.092;2023-02-18T14:10:24;31.35;;;15.75;;
66585;SDS011;53444;45.822;16.092;2023-02-18T14:13:01;30.95;;;14.25;;
66585;SDS011;53444;45.822;16.092;2023-02-18T14:15:51;35.60;;;14.52;;
66585;SDS011;53444;45.822;16.092;2023-02-18T14:18:29;30.27;;;14.30;;
66585;SDS011;53444;45.822;16.092;2023-02-18T14:23:58;31.73;;;15.20;;
66585;SDS011;53444;45.822;16.092;2023-02-18T14:26:29;32.95;;;16.13;;
66585;SDS011;53444;45.822;16.092;2023-02-18T14:29:16;36.20;;;15.48;;
66585;SDS011;53444;45.822;16.092;2023-02-18T14:31:49;32.65;;;15.90;;
66585;SDS011;53444;45.822;16.092;2023-02-18T14:37:50;29.75;;;13.90;;
66585;SDS011;53444;45.822;16.092;2023-02-18T14:40:40;22.85;;;12.20;;
66585;SDS011;53444;45.822;16.092;2023-02-18T14:43:32;26.88;;;13.85;;
66585;SDS011;53444;45.822;16.092;2023-02-18T14:46:24;32.30;;;14.55;;
66585;SDS011;53444;45.822;16.092;2023-02-18T14:49:01;28.77;;;15.02;;
66585;SDS011;53444;45.822;16.092;2023-02-18T14:51:39;25.90;;;12.88;;
66585;SDS011;53444;45.822;16.092;2023-02-18T14:54:10;32.13;;;15.85;;
66585;SDS011;53444;45.822;16.092;2023-02-18T14:56:44;28.05;;;13.73;;